Rock Springs, Arizona
Current Conditions -  °F | °C
As of 4:53 AM on Monday 24 Nov 2014 (Local Time) from KDVT Reporting Station
Clear Clear  
Wind Chill: 40°   Ceiling: Unl
Heat Index: 40°   Visibility: 10mi
Dew Point:   Wind: 0mph
Humidity: 26%   Direction: NA
Pressure: 30.15"   Gusts: NA
Location:  34.1207°N, 112.159°W
Report Text: KDVT 241153Z 00000KT 10SM CLR 04/M14 A3015 RMK AO2 SLP202 T00441139 10122 20044 58001
Loading
Personal Weather Stations






























Interactive Weather Map New forecast layout! Learn more

10-Day Weather Forecast

Advertisements
Track Severe Weather on mobile